createdAt,value
2023-05-07T00:00:32.164Z,101532.59
2023-05-07T00:02:59.907Z,101532.03
2023-05-07T00:05:29.222Z,101533.34
2023-05-07T00:07:59.106Z,101527.91
2023-05-07T00:10:27.764Z,101532.75
2023-05-07T00:12:55.575Z,101530.06
2023-05-07T00:15:23.591Z,101526.50
2023-05-07T00:17:51.437Z,101523.78
2023-05-07T00:20:19.223Z,101518.63
2023-05-07T00:22:48.293Z,101515.66
2023-05-07T00:25:16.016Z,101513.19
2023-05-07T00:27:43.697Z,101510.47
2023-05-07T00:30:12.638Z,101509.63
2023-05-07T00:32:42.715Z,101508.81
2023-05-07T00:35:11.373Z,101510.72
2023-05-07T00:37:39.258Z,101510.72
2023-05-07T00:40:10.253Z,101512.59
2023-05-07T00:42:38.532Z,101508.25
2023-05-07T00:45:07.514Z,101504.72
2023-05-07T00:47:35.655Z,101497.63
2023-05-07T00:50:03.467Z,101497.88
2023-05-07T00:52:31.874Z,101491.63
2023-05-07T00:54:59.666Z,101503.31
2023-05-07T00:57:28.987Z,101506.03
2023-05-07T00:59:56.773Z,101505.44
2023-05-07T01:02:24.496Z,101508.16
2023-05-07T01:04:52.269Z,101507.59
2023-05-07T01:07:20.684Z,101504.88
2023-05-07T01:09:48.517Z,101504.06
2023-05-07T01:12:16.640Z,101502.16
2023-05-07T01:14:45.869Z,101504.31
2023-05-07T01:17:13.734Z,101497.22
2023-05-07T01:19:41.545Z,101496.41
2023-05-07T01:22:11.542Z,101490.41
2023-05-07T01:24:40.993Z,101487.94
2023-05-07T01:27:08.662Z,101484.41
2023-05-07T01:29:36.436Z,101483.00
2023-05-07T01:32:05.438Z,101481.09
2023-05-07T01:34:36.580Z,101469.66
2023-05-07T01:37:04.862Z,101477.00
2023-05-07T01:39:33.488Z,101479.13
2023-05-07T01:42:02.573Z,101480.22
2023-05-07T01:44:30.826Z,101479.38
2023-05-07T01:46:59.384Z,101476.91
2023-05-07T01:49:27.363Z,101476.09
2023-05-07T01:51:56.176Z,101474.44
2023-05-07T01:54:28.826Z,101471.97
2023-05-07T01:56:58.177Z,101471.97
2023-05-07T01:59:27.338Z,101460.56
2023-05-07T02:01:55.205Z,101461.38
2023-05-07T02:04:22.997Z,101461.63
2023-05-07T02:06:50.874Z,101461.03
2023-05-07T02:09:18.843Z,101455.63
2023-05-07T02:11:46.721Z,101458.34
2023-05-07T02:14:14.432Z,101469.19
2023-05-07T02:16:43.722Z,101470.00
2023-05-07T02:19:11.454Z,101474.63
2023-05-07T02:21:39.204Z,101473.78
2023-05-07T02:24:07.475Z,101474.88
2023-05-07T02:26:35.181Z,101481.94
2023-05-07T02:29:02.933Z,101484.91
2023-05-07T02:31:30.620Z,101482.19
2023-05-07T02:33:59.710Z,101482.44
2023-05-07T02:36:27.589Z,101485.16
2023-05-07T02:38:55.607Z,101475.13
2023-05-07T02:41:23.363Z,101475.34
2023-05-07T02:43:51.043Z,101475.34
2023-05-07T02:46:18.817Z,101474.78
2023-05-07T02:48:46.535Z,101478.31
2023-05-07T02:51:16.021Z,101481.03
2023-05-07T02:53:43.716Z,101482.09
2023-05-07T02:56:11.444Z,101478.56
2023-05-07T02:58:40.323Z,101479.59
2023-05-07T03:01:08.198Z,101478.78
2023-05-07T03:03:36.473Z,101479.84
2023-05-07T03:06:04.554Z,101473.84
2023-05-07T03:08:33.618Z,101474.91
2023-05-07T03:11:01.382Z,101468.66
2023-05-07T03:13:29.222Z,101477.88
2023-05-07T03:15:57.132Z,101469.72
2023-05-07T03:18:24.925Z,101469.16
2023-05-07T03:20:53.930Z,101467.50
2023-05-07T03:23:24.073Z,101466.69
2023-05-07T03:25:53.787Z,101462.34
2023-05-07T03:28:21.600Z,101466.13
2023-05-07T03:30:49.501Z,101458.22
2023-05-07T03:33:17.522Z,101460.09
2023-05-07T03:35:45.216Z,101455.75
2023-05-07T03:38:13.213Z,101453.28
2023-05-07T03:40:40.989Z,101453.28
2023-05-07T03:43:10.046Z,101454.34
2023-05-07T03:45:37.721Z,101449.16
2023-05-07T03:48:06.138Z,101452.13
2023-05-07T03:50:33.950Z,101452.13
2023-05-07T03:53:01.744Z,101457.56
2023-05-07T03:55:30.058Z,101441.69
2023-05-07T03:57:58.168Z,101455.09
2023-05-07T04:00:27.536Z,101456.97
2023-05-07T04:02:55.487Z,101464.28
2023-05-07T04:05:23.620Z,101465.94
2023-05-07T04:07:51.429Z,101475.97
2023-05-07T04:10:19.186Z,101480.56
2023-05-07T04:12:46.972Z,101477.88
2023-05-07T04:15:15.193Z,101485.19
2023-05-07T04:17:44.772Z,101485.19
2023-05-07T04:20:18.686Z,101472.00
2023-05-07T04:22:46.469Z,101473.06
2023-05-07T04:25:14.748Z,101494.38
2023-05-07T04:27:42.656Z,101490.03
2023-05-07T04:30:11.491Z,101487.31
2023-05-07T04:32:40.059Z,101477.69
2023-05-07T04:35:09.816Z,101490.28
2023-05-07T04:37:37.646Z,101487.56
2023-05-07T04:40:06.170Z,101480.25
2023-05-07T04:42:33.958Z,101486.72
2023-05-07T04:45:02.528Z,101482.38
2023-05-07T04:47:30.727Z,101485.09
2023-05-07T04:49:59.712Z,101489.69
2023-05-07T04:52:28.911Z,101480.53
2023-05-07T04:54:56.842Z,101497.25
2023-05-07T04:57:24.622Z,101493.72
2023-05-07T04:59:53.458Z,101495.84
2023-05-07T05:02:21.370Z,101502.09
2023-05-07T05:04:49.107Z,101498.56
2023-05-07T05:07:16.926Z,101498.81
2023-05-07T05:09:46.113Z,101497.97
2023-05-07T05:12:13.975Z,101497.41
2023-05-07T05:14:41.767Z,101494.84
2023-05-07T05:17:09.540Z,101511.78
2023-05-07T05:19:37.372Z,101507.44
2023-05-07T05:22:05.889Z,101514.75
2023-05-07T05:24:33.940Z,101509.56
2023-05-07T05:27:03.775Z,101511.22
2023-05-07T05:29:32.481Z,101493.44
2023-05-07T05:32:01.014Z,101499.94
2023-05-07T05:34:28.891Z,101511.44
2023-05-07T05:36:56.656Z,101517.69
2023-05-07T05:39:24.820Z,101516.88
2023-05-07T05:41:52.722Z,101516.88
2023-05-07T05:44:21.915Z,101530.44
2023-05-07T05:46:50.740Z,101524.19
2023-05-07T05:49:18.662Z,101526.91
2023-05-07T05:51:46.987Z,101528.78
2023-05-07T05:54:15.086Z,101533.38
2023-05-07T05:56:43.628Z,101532.31
2023-05-07T05:59:11.564Z,101524.09
2023-05-07T06:01:41.006Z,101522.28
2023-05-07T06:04:09.066Z,101516.19
2023-05-07T06:06:36.939Z,101523.38
2023-05-07T06:09:04.982Z,101522.53
2023-05-07T06:11:33.728Z,101522.28
2023-05-07T06:14:01.539Z,101515.38
2023-05-07T06:16:29.651Z,101529.63
2023-05-07T06:18:58.938Z,101530.69
2023-05-07T06:21:26.790Z,101533.38
2023-05-07T06:23:55.971Z,101526.91
2023-05-07T06:26:23.774Z,101538.56
2023-05-07T06:28:51.553Z,101533.16
2023-05-07T06:31:22.580Z,101529.63
2023-05-07T06:33:51.174Z,101533.16
2023-05-07T06:36:20.491Z,101528.53
2023-05-07T06:38:48.265Z,101530.44
2023-05-07T06:41:16.028Z,101533.97
2023-05-07T06:43:43.806Z,101535.03
2023-05-07T06:46:11.674Z,101538.56
2023-05-07T06:48:39.527Z,101540.22
2023-05-07T06:51:07.329Z,101542.94
2023-05-07T06:53:37.691Z,101540.22
2023-05-07T06:56:05.933Z,101551.06
2023-05-07T06:58:34.111Z,101551.88
2023-05-07T07:01:02.037Z,101558.38
2023-05-07T07:03:29.865Z,101553.78
2023-05-07T07:05:57.750Z,101553.78
2023-05-07T07:08:25.606Z,101556.50
2023-05-07T07:10:54.727Z,101561.91
2023-05-07T07:13:22.609Z,101557.31
2023-05-07T07:15:50.706Z,101560.84
2023-05-07T07:18:18.525Z,101555.44
2023-05-07T07:20:46.637Z,101551.88
2023-05-07T07:23:14.453Z,101553.78
2023-05-07T07:25:42.394Z,101551.88
2023-05-07T07:28:11.740Z,101552.72
2023-05-07T07:30:40.054Z,101558.97
2023-05-07T07:33:07.948Z,101557.06
2023-05-07T07:35:35.993Z,101563.31
2023-05-07T07:38:03.819Z,101568.50
2023-05-07T07:40:31.564Z,101571.22
2023-05-07T07:42:59.785Z,101570.16
2023-05-07T07:45:28.936Z,101567.44
2023-05-07T07:47:56.824Z,101569.09
2023-05-07T07:50:36.021Z,101568.03
2023-05-07T07:53:11.151Z,101567.19
2023-05-07T07:55:40.737Z,101557.16
2023-05-07T07:58:09.029Z,101563.41
2023-05-07T08:00:38.444Z,101565.06
2023-05-07T08:03:07.864Z,101572.13
2023-05-07T08:05:36.297Z,101566.47
2023-05-07T08:08:04.152Z,101559.97
2023-05-07T08:10:36.044Z,101558.91
2023-05-07T08:13:04.910Z,101559.75
2023-05-07T08:15:33.104Z,101555.13
2023-05-07T08:18:03.155Z,101558.66
2023-05-07T08:20:31.230Z,101562.22
2023-05-07T08:22:59.055Z,101561.63
2023-05-07T08:25:26.947Z,101574.47
2023-05-07T08:27:54.940Z,101579.88
2023-05-07T08:30:23.568Z,101583.19
2023-05-07T08:32:51.417Z,101582.38
2023-05-07T08:35:21.124Z,101584.84
2023-05-07T08:37:48.945Z,101582.69
2023-05-07T08:40:17.114Z,101588.94
2023-05-07T08:42:46.647Z,101596.03
2023-05-07T08:45:15.640Z,101583.28
2023-05-07T08:47:47.113Z,101579.66
2023-05-07T08:50:15.510Z,101592.00
2023-05-07T08:52:44.898Z,101586.31
2023-05-07T08:55:13.110Z,101587.97
2023-05-07T08:57:41.396Z,101584.19
2023-05-07T09:00:10.874Z,101587.72
2023-05-07T09:02:39.196Z,101593.16
2023-05-07T09:05:08.179Z,101595.38
2023-05-07T09:07:36.258Z,101587.25
2023-05-07T09:10:06.977Z,101598.69
2023-05-07T09:12:36.277Z,101594.91
2023-05-07T09:15:04.309Z,101591.13
2023-05-07T09:17:32.130Z,101581.00
2023-05-07T09:20:06.125Z,101589.84
2023-05-07T09:22:34.921Z,101586.88
2023-05-07T09:25:02.719Z,101592.06
2023-05-07T09:27:32.568Z,101591.81
2023-05-07T09:30:00.487Z,101593.22
2023-05-07T09:32:28.736Z,101596.53
2023-05-07T09:34:56.648Z,101599.81
2023-05-07T09:37:24.617Z,101589.53
2023-05-07T09:39:52.649Z,101592.81
2023-05-07T09:42:25.344Z,101595.31
2023-05-07T09:44:55.202Z,101595.06
2023-05-07T09:47:26.756Z,101587.72
2023-05-07T09:49:59.509Z,101593.25
2023-05-07T09:52:34.489Z,101591.28
2023-05-07T09:55:04.564Z,101594.16
2023-05-07T09:57:34.189Z,101593.84
2023-05-07T10:00:05.247Z,101596.81
2023-05-07T10:02:38.043Z,101597.63
2023-05-07T10:05:07.090Z,101597.63
2023-05-07T10:07:35.083Z,101594.91
2023-05-07T10:10:03.800Z,101600.09
2023-05-07T10:12:38.738Z,101599.84
2023-05-07T10:15:10.299Z,101592.28
2023-05-07T10:17:39.355Z,101574.50
2023-05-07T10:20:08.727Z,101589.06
2023-05-07T10:22:52.026Z,101599.44
2023-05-07T10:25:32.060Z,101591.03
2023-05-07T10:28:03.135Z,101582.63
2023-05-07T10:30:43.816Z,101588.66
2023-05-07T10:33:14.226Z,101586.75
2023-05-07T10:35:44.879Z,101590.03
2023-05-07T10:38:13.209Z,101582.88
2023-05-07T10:40:41.824Z,101593.91
2023-05-07T10:43:10.913Z,101598.03
2023-05-07T10:45:40.403Z,101598.56
2023-05-07T10:48:27.197Z,101599.97
2023-05-07T10:51:21.785Z,101599.72
2023-05-07T10:53:49.784Z,101601.13
2023-05-07T10:56:29.112Z,101592.88
2023-05-07T10:58:56.986Z,101610.16
2023-05-07T11:01:54.762Z,101610.75
2023-05-07T11:04:27.742Z,101605.88
2023-05-07T11:07:32.545Z,101605.38
2023-05-07T11:10:05.740Z,101582.91
2023-05-07T11:12:56.421Z,101600.28
2023-05-07T11:15:47.366Z,101595.59
2023-05-07T11:18:18.282Z,101600.34
2023-05-07T11:20:52.120Z,101599.28
2023-05-07T11:24:02.136Z,101599.84
2023-05-07T11:26:32.380Z,101592.03
2023-05-07T11:29:01.336Z,101595.91
2023-05-07T11:31:31.060Z,101592.13
2023-05-07T11:34:01.104Z,101593.25
2023-05-07T11:36:34.675Z,101596.28
2023-05-07T11:39:02.505Z,101603.13
2023-05-07T11:41:38.066Z,101599.34
2023-05-07T11:44:06.173Z,101593.38
2023-05-07T11:46:34.590Z,101588.28
2023-05-07T11:49:03.864Z,101592.38
2023-05-07T11:51:32.625Z,101591.31
2023-05-07T11:54:00.792Z,101593.78
2023-05-07T11:56:28.690Z,101593.53
2023-05-07T11:58:56.522Z,101591.38
2023-05-07T12:01:24.264Z,101595.75
2023-05-07T12:03:52.262Z,101593.00
2023-05-07T12:06:21.597Z,101583.22
2023-05-07T12:08:49.503Z,101575.63
2023-05-07T12:11:19.718Z,101588.16
2023-05-07T12:13:47.563Z,101589.78
2023-05-07T12:16:16.492Z,101592.25
2023-05-07T12:18:44.921Z,101604.78
2023-05-07T12:21:13.864Z,101634.44
2023-05-07T12:23:43.306Z,101639.13
2023-05-07T12:26:11.739Z,101656.03
2023-05-07T12:28:40.958Z,101682.16
2023-05-07T12:31:09.349Z,101713.66
2023-05-07T12:33:37.952Z,101706.50
2023-05-07T12:36:08.641Z,101708.91
2023-05-07T12:38:41.230Z,101703.13
2023-05-07T12:41:11.979Z,101695.22
2023-05-07T12:43:40.291Z,101682.97
2023-05-07T12:46:09.632Z,101673.97
2023-05-07T12:48:39.771Z,101657.66
2023-05-07T12:51:08.635Z,101658.97
2023-05-07T12:53:42.403Z,101662.38
2023-05-07T12:56:11.591Z,101670.84
2023-05-07T12:58:39.558Z,101663.38
2023-05-07T13:01:11.308Z,101682.47
2023-05-07T13:03:40.486Z,101692.22
2023-05-07T13:06:13.169Z,101703.75
2023-05-07T13:08:44.373Z,101706.97
2023-05-07T13:11:14.941Z,101709.94
2023-05-07T13:13:43.254Z,101708.28
2023-05-07T13:16:13.480Z,101709.28
2023-05-07T13:18:45.068Z,101714.22
2023-05-07T13:21:14.248Z,101709.84
2023-05-07T13:23:42.341Z,101714.72
2023-05-07T13:26:24.987Z,101713.88
2023-05-07T13:28:55.763Z,101720.41
2023-05-07T13:31:23.670Z,101716.84
2023-05-07T13:33:51.830Z,101714.97
2023-05-07T13:36:19.695Z,101704.91
2023-05-07T13:38:47.502Z,101697.81
2023-05-07T13:41:15.827Z,101700.53
2023-05-07T13:43:43.883Z,101702.19
2023-05-07T13:46:13.136Z,101709.53
2023-05-07T13:48:41.064Z,101713.88
2023-05-07T13:51:09.093Z,101704.91
2023-05-07T13:53:36.965Z,101704.66
2023-05-07T13:56:06.127Z,101719.91
2023-05-07T13:58:34.047Z,101719.06
2023-05-07T14:01:02.141Z,101713.16
2023-05-07T14:03:33.049Z,101716.69
2023-05-07T14:06:02.352Z,101719.41
2023-05-07T14:08:31.678Z,101706.63
2023-05-07T14:10:59.876Z,101703.91
2023-05-07T14:13:28.349Z,101707.47
2023-05-07T14:15:56.337Z,101708.03
2023-05-07T14:18:24.183Z,101707.78
2023-05-07T14:20:53.352Z,101714.88
2023-05-07T14:23:23.142Z,101701.69
2023-05-07T14:25:51.049Z,101705.88
2023-05-07T14:28:18.881Z,101717.34
2023-05-07T14:30:46.789Z,101699.88
2023-05-07T14:33:14.617Z,101716.03
2023-05-07T14:35:42.423Z,101718.50
2023-05-07T14:38:11.612Z,101728.88
2023-05-07T14:40:39.696Z,101722.94
2023-05-07T14:43:07.481Z,101715.53
2023-05-07T14:45:35.675Z,101716.84
2023-05-07T14:48:04.046Z,101724.44
2023-05-07T14:50:32.035Z,101720.63
2023-05-07T14:52:59.793Z,101723.09
2023-05-07T14:55:29.012Z,101726.41
2023-05-07T14:57:57.988Z,101728.03
2023-05-07T15:00:25.971Z,101735.94
2023-05-07T15:02:54.065Z,101733.25
2023-05-07T15:05:21.964Z,101726.97
2023-05-07T15:07:49.907Z,101724.25
2023-05-07T15:10:17.926Z,101733.25
2023-05-07T15:12:47.578Z,101723.19
2023-05-07T15:15:15.819Z,101731.91
2023-05-07T15:17:43.655Z,101731.66
2023-05-07T15:20:11.713Z,101741.22
2023-05-07T15:22:39.569Z,101731.75
2023-05-07T15:25:07.827Z,101732.31
2023-05-07T15:27:35.869Z,101734.53
2023-05-07T15:30:05.991Z,101733.47
2023-05-07T15:32:33.806Z,101737.56
2023-05-07T15:35:01.724Z,101724.81
2023-05-07T15:37:29.548Z,101725.38
2023-05-07T15:39:57.328Z,101734.34
2023-05-07T15:42:25.157Z,101731.38
2023-05-07T15:44:53.045Z,101733.84
2023-05-07T15:47:23.152Z,101725.94
2023-05-07T15:49:51.003Z,101735.50
2023-05-07T15:52:18.896Z,101726.53
2023-05-07T15:54:46.904Z,101733.03
2023-05-07T15:57:14.685Z,101730.31
2023-05-07T15:59:42.486Z,101729.31
2023-05-07T16:02:10.437Z,101723.53
2023-05-07T16:04:39.635Z,101714.00
2023-05-07T16:07:07.850Z,101718.34
2023-05-07T16:09:35.747Z,101712.91
2023-05-07T16:12:03.902Z,101707.47
2023-05-07T16:14:32.088Z,101687.72
2023-05-07T16:17:00.017Z,101708.03
2023-05-07T16:19:28.976Z,101714.31
2023-05-07T16:21:58.250Z,101714.31
2023-05-07T16:24:26.101Z,101718.69
2023-05-07T16:26:53.893Z,101719.50
2023-05-07T16:29:23.190Z,101715.69
2023-05-07T16:31:51.125Z,101723.88
2023-05-07T16:34:19.060Z,101724.69
2023-05-07T16:36:47.062Z,101723.63
2023-05-07T16:39:16.196Z,101726.34
2023-05-07T16:41:44.353Z,101720.56
2023-05-07T16:44:12.198Z,101735.06
2023-05-07T16:46:39.991Z,101731.28
2023-05-07T16:49:07.791Z,101735.66
2023-05-07T16:51:36.073Z,101739.75
2023-05-07T16:54:03.843Z,101744.38
2023-05-07T16:56:33.072Z,101738.94
2023-05-07T16:59:00.879Z,101744.97
2023-05-07T17:01:32.651Z,101747.69
2023-05-07T17:04:02.032Z,101750.41
2023-05-07T17:06:29.878Z,101753.94
2023-05-07T17:08:57.844Z,101751.22
2023-05-07T17:11:27.977Z,101753.69
2023-05-07T17:13:57.735Z,101753.69
2023-05-07T17:16:25.626Z,101759.72
2023-05-07T17:18:53.642Z,101751.53
2023-05-07T17:21:21.498Z,101753.19
2023-05-07T17:23:49.365Z,101751.78
2023-05-07T17:26:17.935Z,101747.75
2023-05-07T17:28:45.754Z,101747.69
2023-05-07T17:31:14.924Z,101761.34
2023-05-07T17:33:42.737Z,101759.72
2023-05-07T17:36:10.525Z,101764.06
2023-05-07T17:38:38.441Z,101765.16
2023-05-07T17:41:06.220Z,101763.50
2023-05-07T17:43:34.313Z,101774.13
2023-05-07T17:46:03.488Z,101777.13
2023-05-07T17:48:32.831Z,101772.50
2023-05-07T17:51:03.930Z,101765.59
2023-05-07T17:53:32.563Z,101779.00
2023-05-07T17:56:00.377Z,101780.91
2023-05-07T17:58:28.197Z,101776.53
2023-05-07T18:00:56.208Z,101794.50
2023-05-07T18:03:24.714Z,101794.50
2023-05-07T18:05:54.035Z,101792.03
2023-05-07T18:08:21.866Z,101790.31
2023-05-07T18:10:49.717Z,101793.38
2023-05-07T18:13:17.658Z,101804.25
2023-05-07T18:15:46.862Z,101801.78
2023-05-07T18:18:14.752Z,101807.22
2023-05-07T18:20:42.601Z,101805.56
2023-05-07T18:23:11.812Z,101803.94
2023-05-07T18:25:39.562Z,101809.38
2023-05-07T18:28:07.330Z,101807.72
2023-05-07T18:30:35.185Z,101806.91
2023-05-07T18:33:03.160Z,101811.50
2023-05-07T18:35:32.385Z,101816.97
2023-05-07T18:38:00.365Z,101816.13
2023-05-07T18:40:29.546Z,101814.50
2023-05-07T18:42:57.422Z,101794.97
2023-05-07T18:45:25.188Z,101817.44
2023-05-07T18:47:53.101Z,101813.66
2023-05-07T18:50:20.977Z,101823.16
2023-05-07T18:52:49.125Z,101827.50
2023-05-07T18:55:17.112Z,101831.88
2023-05-07T18:57:46.370Z,101828.59
2023-05-07T19:00:15.786Z,101837.56
2023-05-07T19:02:43.731Z,101841.38
2023-05-07T19:05:11.627Z,101840.53
2023-05-07T19:07:39.448Z,101844.34
2023-05-07T19:10:08.412Z,101846.47
2023-05-07T19:12:36.297Z,101842.94
2023-05-07T19:15:06.104Z,101845.91
2023-05-07T19:17:35.571Z,101838.81
2023-05-07T19:20:04.289Z,101851.84
2023-05-07T19:22:32.121Z,101855.63
2023-05-07T19:24:59.929Z,101854.81
2023-05-07T19:27:27.817Z,101860.75
2023-05-07T19:29:55.952Z,101862.63
2023-05-07T19:32:25.277Z,101864.78
2023-05-07T19:34:53.299Z,101870.22
2023-05-07T19:37:24.211Z,101874.00
2023-05-07T19:39:53.661Z,101881.34
2023-05-07T19:42:22.669Z,101885.13
2023-05-07T19:44:51.650Z,101884.56
2023-05-07T19:47:19.803Z,101898.16
2023-05-07T19:49:48.961Z,101876.22
2023-05-07T19:52:17.155Z,101888.59
2023-05-07T19:54:45.041Z,101894.28
2023-05-07T19:57:12.907Z,101891.81
2023-05-07T19:59:41.843Z,101894.53
2023-05-07T20:02:12.020Z,101901.03
2023-05-07T20:04:40.240Z,101898.56
2023-05-07T20:07:09.444Z,101897.75
2023-05-07T20:09:37.731Z,101895.25
2023-05-07T20:12:06.707Z,101900.94
2023-05-07T20:14:35.366Z,101904.72
2023-05-07T20:17:03.303Z,101901.19
2023-05-07T20:19:31.461Z,101910.16
2023-05-07T20:21:59.399Z,101914.78
2023-05-07T20:24:28.571Z,101913.97
2023-05-07T20:26:56.561Z,101910.66
2023-05-07T20:29:24.489Z,101901.59
2023-05-07T20:31:52.274Z,101911.72
2023-05-07T20:34:20.417Z,101909.84
2023-05-07T20:36:48.274Z,101910.91
2023-05-07T20:39:16.924Z,101912.81
2023-05-07T20:41:46.098Z,101904.63
2023-05-07T20:44:13.895Z,101900.28
2023-05-07T20:46:42.046Z,101893.25
2023-05-07T20:49:09.837Z,101907.84
2023-05-07T20:51:37.689Z,101909.97
2023-05-07T20:54:05.677Z,101914.59
2023-05-07T20:56:33.392Z,101909.41
2023-05-07T20:59:02.723Z,101916.72
2023-05-07T21:01:30.581Z,101914.25
2023-05-07T21:03:58.348Z,101914.25
2023-05-07T21:06:29.028Z,101916.41
2023-05-07T21:08:56.970Z,101919.13
2023-05-07T21:11:24.801Z,101916.63
2023-05-07T21:13:52.999Z,101917.72
2023-05-07T21:16:25.033Z,101918.75
2023-05-07T21:18:53.149Z,101922.53
2023-05-07T21:21:20.946Z,101922.78
2023-05-07T21:23:50.955Z,101927.38
2023-05-07T21:26:19.445Z,101925.72
2023-05-07T21:28:47.498Z,101931.41
2023-05-07T21:31:15.409Z,101931.66
2023-05-07T21:33:45.524Z,101935.19
2023-05-07T21:36:13.596Z,101930.81
2023-05-07T21:38:41.959Z,101927.78
2023-05-07T21:41:09.906Z,101930.25
2023-05-07T21:43:37.687Z,101932.38
2023-05-07T21:46:08.498Z,101926.94
2023-05-07T21:48:36.649Z,101932.38
2023-05-07T21:51:07.594Z,101933.44
2023-05-07T21:53:35.940Z,101939.94
2023-05-07T21:56:05.056Z,101934.50
2023-05-07T21:58:33.205Z,101933.09
2023-05-07T22:01:01.877Z,101931.44
2023-05-07T22:03:29.924Z,101938.78
2023-05-07T22:05:58.031Z,101936.31
2023-05-07T22:08:27.237Z,101933.59
2023-05-07T22:10:55.008Z,101942.56
2023-05-07T22:13:22.890Z,101940.91
2023-05-07T22:15:57.478Z,101947.41
2023-05-07T22:18:26.594Z,101945.53
2023-05-07T22:20:54.566Z,101941.97
2023-05-07T22:23:22.340Z,101940.31
2023-05-07T22:25:51.801Z,101944.13
2023-05-07T22:28:19.614Z,101936.78
2023-05-07T22:30:47.563Z,101945.19
2023-05-07T22:33:15.381Z,101948.97
2023-05-07T22:35:43.227Z,101950.84
2023-05-07T22:38:11.075Z,101950.03
2023-05-07T22:40:38.854Z,101944.59
2023-05-07T22:43:08.062Z,101947.56
2023-05-07T22:45:35.953Z,101950.28
2023-05-07T22:48:03.960Z,101950.50
2023-05-07T22:50:31.894Z,101954.88
2023-05-07T22:52:59.793Z,101952.41
2023-05-07T22:55:27.664Z,101950.75
2023-05-07T22:57:55.488Z,101942.59
2023-05-07T23:00:25.346Z,101953.72
2023-05-07T23:02:53.231Z,101947.47
2023-05-07T23:05:21.557Z,101951.25
2023-05-07T23:07:49.423Z,101950.44
2023-05-07T23:10:17.638Z,101948.78
2023-05-07T23:12:49.225Z,101950.66
2023-05-07T23:15:17.230Z,101950.09
2023-05-07T23:17:47.813Z,101946.53
2023-05-07T23:20:16.939Z,101947.03
2023-05-07T23:22:44.755Z,101959.53
2023-05-07T23:25:12.596Z,101952.44
2023-05-07T23:27:40.484Z,101947.16
2023-05-07T23:30:09.774Z,101948.91
2023-05-07T23:32:37.888Z,101945.59
2023-05-07T23:35:08.284Z,101932.63
2023-05-07T23:37:36.347Z,101952.09
2023-05-07T23:40:04.592Z,101939.97
2023-05-07T23:42:32.695Z,101935.09
2023-05-07T23:45:00.637Z,101950.69
2023-05-07T23:47:28.558Z,101946.56
2023-05-07T23:49:56.389Z,101951.75
2023-05-07T23:52:25.861Z,101950.09
2023-05-07T23:54:54.037Z,101947.63
2023-05-07T23:57:21.800Z,101953.88
2023-05-07T23:59:49.582Z,101941.38
